Huron, Indiana
Current Conditions -  °F | °C
As of 3:35 PM on Thursday 27 Nov 2014 (Local Time) from KDCY Reporting Station
Light Snow Light Snow  
Wind Chill: 21°   Ceiling: 2800
Heat Index: 29°   Visibility: 5mi
Dew Point: 25°   Wind: 9mph
Humidity: 85%   Direction: 300°WNW
Pressure: 30.41"   Gusts: NA
Location:  38.72°N, 86.67°W
Report Text: KDCY 272035Z AUTO 30008KT 5SM -SN SCT020 OVC028 M01/M04 A3041 RMK AO2 T10151038
Loading
Personal Weather Stations






























Interactive Weather Map New forecast layout! Learn more

10-Day Weather Forecast

Advertisements
Track Severe Weather on mobile